MM31 weather

Fausto Vega Santander Airport
Veracruz, Mexico

Public forecast

Using degrees Celsius for public forecast. Weather courtesy of forecast.io.

METAR (pilot weather report)

Closest report is El Tajín National Airport, 21.2 nm (39.3 km) SSW. Retrieved 2018/12/14 16:40 UTC (38 minutes ago):

MMPA 141640Z 33006KT 6SM OVC070 19/17 A3024 RMK 8/07/ HZY

TAF (pilot weather forecast)

Forecast is more than 6 hours old.

Closest forecast is El Tajín National Airport, 21.2 nm (39.3 km) SSW. Retrieved 2018/12/14 06:09 UTC (11 hours ago):

TAF COR TAF COR MMPA 140607Z 1406/1506 33008KT 3SM BR HZ SCT010 BKN250 TEMPO 1410/1414 2SM BR -DZ OVC010 FM141400 33020KT 5SM HZ SCT015 BKN250 FM150000 03010KT 5SM HZ SCT010 BKN015